Wilson Maas — 8PSZ — position and weather

sailwx.info

Track history (hours):
 
Tides and Currents Weather Stations Pressure Air Temp Water Temp Dewpoint Dewpoint Depression Visibility Wind Speed Wind Dir Waves Ship Positions

Wilson Maas

Last reported at 2014-Nov-20 19:13 UTC. Time now 2014-Nov-23 16:03 UTC.
Position N 66°17' E 012°15'.

Length 78 m; draft 3.9 m.

Type: Cargo ship. MMSI: 314217000.

Date/timePositionNaut miles runAvg speedWind from/ knotsBaromVisibWave heightAir tempDewpointWater temp
2014-Nov-20 19:13N 66°17' E 012°15'710.4
2014-Nov-20 18:33N 66°15' E 012°31'3 0.1
2014-Nov-19 21:33N 66°15' E 012°37'1111.0
2014-Nov-19 20:33N 66°17' E 012°10'167 4.9
2014-Nov-18 10:15N 63°45' E 009°28'10 5.5
2014-Nov-18 08:28N 63°37' E 009°16'311 7.9
2014-Nov-16 17:13N 58°51' E 005°00'3211.1
2014-Nov-16 14:21N 58°25' E 005°35'810.1
2014-Nov-16 13:34N 58°20' E 005°47'1010.2
2014-Nov-16 12:33N 58°13' E 006°02'9 9.5
2014-Nov-16 11:33N 58°08' E 006°16'83 6.7
2014-Nov-15 23:06N 56°53' E 007°24'9 8.9
2014-Nov-15 22:08N 56°44' E 007°22'5 9.1
2014-Nov-15 21:32N 56°39' E 007°21'9 9.1
2014-Nov-15 20:33N 56°30' E 007°17'9 9.4
2014-Nov-15 19:33N 56°21' E 007°15'9 9.4
2014-Nov-15 18:33N 56°11' E 007°15'47 9.5
2014-Nov-15 13:33N 55°25' E 006°60'9 9.3
2014-Nov-15 12:33N 55°16' E 006°56'9 9.4
2014-Nov-15 11:33N 55°07' E 006°52'10 9.7
2014-Nov-15 10:33N 54°57' E 006°49'64 9.2
2014-Nov-15 03:32N 54°18' E 005°20'1010.2
2014-Nov-15 02:33N 54°12' E 005°06'10 9.7
2014-Nov-15 01:33N 54°05' E 004°55'3210.6
2014-Nov-14 22:30N 53°33' E 004°49'3812.3
2014-Nov-14 19:24N 52°59' E 004°21'1011.7
2014-Nov-14 18:33N 52°50' E 004°15'1111.2
2014-Nov-14 17:33N 52°40' E 004°04'1110.6
2014-Nov-14 16:30N 52°30' E 003°55'1110.3
2014-Nov-14 15:23N 52°19' E 003°52'810.2
2014-Nov-14 14:33N 52°11' E 003°54'2311.3
2014-Nov-14 12:33N 51°54' E 004°18'6 5.9
2014-Nov-14 11:32N 51°54' E 004°28'0 0.0
2014-Nov-14 10:32N 51°54' E 004°28'0 0.0
2014-Nov-14 09:32N 51°54' E 004°28'2 2.0
2014-Nov-14 08:34N 51°54' E 004°25'0 0.1
2014-Nov-14 07:31N 51°54' E 004°25'0 0.0
2014-Nov-14 06:31N 51°54' E 004°25'0 0.0
2014-Nov-14 05:31N 51°54' E 004°25'0 0.0
2014-Nov-14 04:31N 51°54' E 004°25'0 0.0
2014-Nov-14 03:28N 51°54' E 004°25'0 0.0
2014-Nov-14 02:28N 51°54' E 004°25'0 0.0
2014-Nov-14 01:31N 51°54' E 004°25'0 0.0
2014-Nov-14 00:31N 51°54' E 004°25'0 0.0
2014-Nov-13 23:28N 51°54' E 004°25'0 0.0
2014-Nov-13 22:31N 51°54' E 004°25'0 0.0
2014-Nov-13 21:28N 51°54' E 004°25'1 1.3
2014-Nov-13 20:33N 51°54' E 004°27'1 0.8
2014-Nov-13 19:31N 51°54' E 004°28'0 0.0
2014-Nov-13 18:31N 51°54' E 004°28'0 0.0
2014-Nov-13 17:31N 51°54' E 004°28'0 0.0
2014-Nov-13 16:31N 51°54' E 004°28'0 0.0
2014-Nov-13 15:31N 51°54' E 004°28'0 0.0
2014-Nov-13 14:31N 51°54' E 004°28'0 0.0
2014-Nov-13 13:31N 51°54' E 004°28'0 0.0
2014-Nov-13 12:31N 51°54' E 004°28'0 0.0
2014-Nov-13 11:31N 51°54' E 004°28'0 0.0
2014-Nov-13 10:31N 51°54' E 004°28'0 0.0
2014-Nov-13 09:31N 51°54' E 004°28'0 0.0
2014-Nov-13 08:31N 51°54' E 004°28'0 0.0
2014-Nov-13 07:31N 51°54' E 004°28'6 6.7
2014-Nov-13 06:33N 51°54' E 004°18'1111.4
2014-Nov-13 05:33N 51°60' E 004°02'1110.2
2014-Nov-13 04:31N 52°05' E 003°47'9 9.7
2014-Nov-13 03:33N 52°14' E 003°46'1010.4
2014-Nov-13 02:33N 52°24' E 003°49'1110.8
2014-Nov-13 01:33N 52°35' E 003°51'1110.7
2014-Nov-13 00:29N 52°46' E 003°50'133 5.6
2014-Nov-12 00:33N 53°32' E 000°22'1010.4
2014-Nov-11 23:33N 53°34' E 000°05'1313.2
2014-Nov-11 22:33N 53°41' W 000°14'1110.8
2014-Nov-11 21:32N 53°41' W 000°32'5 0.2
2014-Nov-10 19:31N 53°42' W 000°40'  
Track history (hours):
 
Tides and Currents Weather Stations Pressure Air Temp Water Temp Dewpoint Dewpoint Depression Visibility Wind Speed Wind Dir Waves Ship Positions

Wilson Maas

Last reported at 2014-Nov-20 19:13 UTC. Time now 2014-Nov-23 16:03 UTC.
Position N 66°17' E 012°15'.

Length 78 m; draft 3.9 m.

Type: Cargo ship. MMSI: 314217000.

Date/timePositionNaut miles runAvg speedWind from/ knotsBaromVisibWave heightAir tempDewpointWater temp
2014-Nov-20 19:13N 66°17' E 012°15'710.4
2014-Nov-20 18:33N 66°15' E 012°31'3 0.1
2014-Nov-19 21:33N 66°15' E 012°37'1111.0
2014-Nov-19 20:33N 66°17' E 012°10'167 4.9
2014-Nov-18 10:15N 63°45' E 009°28'10 5.5
2014-Nov-18 08:28N 63°37' E 009°16'311 7.9
2014-Nov-16 17:13N 58°51' E 005°00'3211.1
2014-Nov-16 14:21N 58°25' E 005°35'810.1
2014-Nov-16 13:34N 58°20' E 005°47'1010.2
2014-Nov-16 12:33N 58°13' E 006°02'9 9.5
2014-Nov-16 11:33N 58°08' E 006°16'83 6.7
2014-Nov-15 23:06N 56°53' E 007°24'9 8.9
2014-Nov-15 22:08N 56°44' E 007°22'5 9.1
2014-Nov-15 21:32N 56°39' E 007°21'9 9.1
2014-Nov-15 20:33N 56°30' E 007°17'9 9.4
2014-Nov-15 19:33N 56°21' E 007°15'9 9.4
2014-Nov-15 18:33N 56°11' E 007°15'47 9.5
2014-Nov-15 13:33N 55°25' E 006°60'9 9.3
2014-Nov-15 12:33N 55°16' E 006°56'9 9.4
2014-Nov-15 11:33N 55°07' E 006°52'10 9.7
2014-Nov-15 10:33N 54°57' E 006°49'64 9.2
2014-Nov-15 03:32N 54°18' E 005°20'1010.2
2014-Nov-15 02:33N 54°12' E 005°06'10 9.7
2014-Nov-15 01:33N 54°05' E 004°55'3210.6
2014-Nov-14 22:30N 53°33' E 004°49'3812.3
2014-Nov-14 19:24N 52°59' E 004°21'1011.7
2014-Nov-14 18:33N 52°50' E 004°15'1111.2
2014-Nov-14 17:33N 52°40' E 004°04'1110.6
2014-Nov-14 16:30N 52°30' E 003°55'1110.3
2014-Nov-14 15:23N 52°19' E 003°52'810.2
2014-Nov-14 14:33N 52°11' E 003°54'2311.3
2014-Nov-14 12:33N 51°54' E 004°18'6 5.9
2014-Nov-14 11:32N 51°54' E 004°28'0 0.0
2014-Nov-14 10:32N 51°54' E 004°28'0 0.0
2014-Nov-14 09:32N 51°54' E 004°28'2 2.0
2014-Nov-14 08:34N 51°54' E 004°25'0 0.1
2014-Nov-14 07:31N 51°54' E 004°25'0 0.0
2014-Nov-14 06:31N 51°54' E 004°25'0 0.0
2014-Nov-14 05:31N 51°54' E 004°25'0 0.0
2014-Nov-14 04:31N 51°54' E 004°25'0 0.0
2014-Nov-14 03:28N 51°54' E 004°25'0 0.0
2014-Nov-14 02:28N 51°54' E 004°25'0 0.0
2014-Nov-14 01:31N 51°54' E 004°25'0 0.0
2014-Nov-14 00:31N 51°54' E 004°25'0 0.0
2014-Nov-13 23:28N 51°54' E 004°25'0 0.0
2014-Nov-13 22:31N 51°54' E 004°25'0 0.0
2014-Nov-13 21:28N 51°54' E 004°25'1 1.3
2014-Nov-13 20:33N 51°54' E 004°27'1 0.8
2014-Nov-13 19:31N 51°54' E 004°28'0 0.0
2014-Nov-13 18:31N 51°54' E 004°28'0 0.0
2014-Nov-13 17:31N 51°54' E 004°28'0 0.0
2014-Nov-13 16:31N 51°54' E 004°28'0 0.0
2014-Nov-13 15:31N 51°54' E 004°28'0 0.0
2014-Nov-13 14:31N 51°54' E 004°28'0 0.0
2014-Nov-13 13:31N 51°54' E 004°28'0 0.0
2014-Nov-13 12:31N 51°54' E 004°28'0 0.0
2014-Nov-13 11:31N 51°54' E 004°28'0 0.0
2014-Nov-13 10:31N 51°54' E 004°28'0 0.0
2014-Nov-13 09:31N 51°54' E 004°28'0 0.0
2014-Nov-13 08:31N 51°54' E 004°28'0 0.0
2014-Nov-13 07:31N 51°54' E 004°28'6 6.7
2014-Nov-13 06:33N 51°54' E 004°18'1111.4
2014-Nov-13 05:33N 51°60' E 004°02'1110.2
2014-Nov-13 04:31N 52°05' E 003°47'9 9.7
2014-Nov-13 03:33N 52°14' E 003°46'1010.4
2014-Nov-13 02:33N 52°24' E 003°49'1110.8
2014-Nov-13 01:33N 52°35' E 003°51'1110.7
2014-Nov-13 00:29N 52°46' E 003°50'133 5.6
2014-Nov-12 00:33N 53°32' E 000°22'1010.4
2014-Nov-11 23:33N 53°34' E 000°05'1313.2
2014-Nov-11 22:33N 53°41' W 000°14'1110.8
2014-Nov-11 21:32N 53°41' W 000°32'5 0.2
2014-Nov-10 19:31N 53°42' W 000°40'  

Dump ship's entire track history